createdAt,value
2022-11-03T00:01:50.133Z,8.40
2022-11-03T00:04:20.569Z,8.40
2022-11-03T00:06:51.460Z,8.40
2022-11-03T00:09:21.090Z,8.30
2022-11-03T00:11:51.731Z,8.30
2022-11-03T00:14:20.842Z,8.30
2022-11-03T00:16:50.679Z,8.20
2022-11-03T00:19:18.982Z,8.20
2022-11-03T00:21:48.284Z,8.20
2022-11-03T00:24:16.665Z,8.20
2022-11-03T00:26:44.965Z,8.20
2022-11-03T00:29:15.166Z,8.20
2022-11-03T00:31:45.151Z,8.20
2022-11-03T00:34:14.980Z,8.20
2022-11-03T00:36:45.152Z,8.20
2022-11-03T00:39:14.534Z,8.20
2022-11-03T00:41:42.767Z,8.10
2022-11-03T00:44:13.373Z,8.10
2022-11-03T00:46:41.814Z,8.10
2022-11-03T00:49:10.114Z,8.10
2022-11-03T00:51:39.882Z,8.10
2022-11-03T00:54:08.531Z,8.10
2022-11-03T00:56:38.800Z,8.10
2022-11-03T00:59:08.725Z,8.10
2022-11-03T01:01:45.388Z,8.10
2022-11-03T01:04:33.670Z,8.10
2022-11-03T01:07:04.828Z,8.00
2022-11-03T01:09:36.947Z,8.00
2022-11-03T01:12:07.849Z,8.00
2022-11-03T01:14:38.829Z,8.00
2022-11-03T01:17:08.506Z,8.00
2022-11-03T01:19:36.819Z,8.00
2022-11-03T01:22:09.688Z,8.00
2022-11-03T01:24:40.555Z,8.00
2022-11-03T01:27:09.307Z,8.00
2022-11-03T01:29:37.766Z,8.10
2022-11-03T01:32:06.505Z,8.10
2022-11-03T01:34:34.962Z,8.10
2022-11-03T01:37:03.341Z,8.00
2022-11-03T01:39:33.485Z,8.00
2022-11-03T01:42:01.955Z,8.00
2022-11-03T01:44:36.285Z,7.90
2022-11-03T01:47:13.259Z,7.90
2022-11-03T01:49:47.823Z,7.80
2022-11-03T01:52:19.713Z,7.80
2022-11-03T01:54:52.068Z,7.70
2022-11-03T01:57:26.577Z,7.70
2022-11-03T01:59:58.120Z,7.60
2022-11-03T02:02:28.018Z,7.60
2022-11-03T02:05:00.000Z,7.50
2022-11-03T02:07:32.302Z,7.50
2022-11-03T02:10:02.746Z,7.50
2022-11-03T02:12:31.810Z,7.40
2022-11-03T02:15:03.848Z,7.40
2022-11-03T02:17:34.226Z,7.40
2022-11-03T02:20:06.659Z,7.40
2022-11-03T02:22:55.264Z,7.30
2022-11-03T02:25:38.715Z,7.30
2022-11-03T02:28:07.742Z,7.30
2022-11-03T02:30:45.805Z,7.30
2022-11-03T02:33:32.198Z,7.30
2022-11-03T02:36:06.457Z,7.30
2022-11-03T02:38:40.244Z,7.30
2022-11-03T02:41:11.207Z,7.30
2022-11-03T02:43:40.985Z,7.30
2022-11-03T02:46:10.314Z,7.30
2022-11-03T02:48:40.090Z,7.40
2022-11-03T02:51:08.777Z,7.40
2022-11-03T02:53:43.903Z,7.40
2022-11-03T02:56:18.302Z,7.50
2022-11-03T02:58:54.761Z,7.50
2022-11-03T03:01:29.848Z,7.50
2022-11-03T03:04:02.474Z,7.50
2022-11-03T03:06:35.906Z,7.60
2022-11-03T03:09:07.608Z,7.60
2022-11-03T03:11:42.350Z,7.60
2022-11-03T03:14:15.009Z,7.60
2022-11-03T03:16:50.268Z,7.70
2022-11-03T03:19:24.736Z,7.60
2022-11-03T03:21:58.429Z,7.60
2022-11-03T03:24:32.295Z,7.60
2022-11-03T03:27:05.017Z,7.60
2022-11-03T03:29:40.904Z,7.50
2022-11-03T03:32:10.962Z,7.50
2022-11-03T03:34:42.982Z,7.50
2022-11-03T03:37:14.855Z,7.50
2022-11-03T03:39:47.565Z,7.40
2022-11-03T03:42:19.130Z,7.40
2022-11-03T03:44:49.305Z,7.40
2022-11-03T03:47:23.914Z,7.40
2022-11-03T03:49:52.315Z,7.40
2022-11-03T03:52:21.581Z,7.40
2022-11-03T03:54:50.134Z,7.40
2022-11-03T03:57:21.946Z,7.40
2022-11-03T03:59:50.271Z,7.40
2022-11-03T04:02:18.771Z,7.40
2022-11-03T04:04:47.718Z,7.50
2022-11-03T04:07:36.700Z,7.40
2022-11-03T04:10:08.486Z,7.50
2022-11-03T04:12:55.419Z,7.40
2022-11-03T04:15:40.972Z,7.40
2022-11-03T04:18:27.060Z,7.40
2022-11-03T04:21:12.858Z,7.40
2022-11-03T04:23:41.660Z,7.40
2022-11-03T04:26:14.393Z,7.40
2022-11-03T04:28:44.555Z,7.40
2022-11-03T04:31:15.605Z,7.40
2022-11-03T04:33:44.614Z,7.50
2022-11-03T04:36:17.810Z,7.50
2022-11-03T04:38:46.674Z,7.50
2022-11-03T04:41:17.845Z,7.50
2022-11-03T04:43:49.583Z,7.50
2022-11-03T04:46:24.117Z,7.50
2022-11-03T04:48:53.704Z,7.50
2022-11-03T04:51:26.790Z,7.50
2022-11-03T04:53:57.027Z,7.50
2022-11-03T04:56:26.818Z,7.50
2022-11-03T04:58:56.559Z,7.50
2022-11-03T05:01:25.990Z,7.50
2022-11-03T05:03:55.702Z,7.40
2022-11-03T05:06:28.292Z,7.40
2022-11-03T05:09:02.014Z,7.30
2022-11-03T05:11:33.910Z,7.30
2022-11-03T05:14:11.153Z,7.30
2022-11-03T05:16:39.625Z,7.30
2022-11-03T05:19:14.125Z,7.20
2022-11-03T05:21:42.697Z,7.10
2022-11-03T05:26:44.248Z,7.10
2022-11-03T05:29:17.779Z,7.00
2022-11-03T05:31:48.766Z,7.10
2022-11-03T05:34:36.672Z,7.10
2022-11-03T05:37:26.518Z,7.10
2022-11-03T05:39:59.923Z,7.10
2022-11-03T05:42:37.517Z,7.10
2022-11-03T05:45:19.733Z,7.10
2022-11-03T05:47:49.806Z,7.10
2022-11-03T05:50:21.947Z,7.10
2022-11-03T05:52:52.916Z,7.10
2022-11-03T05:55:27.254Z,7.10
2022-11-03T05:57:58.586Z,7.20
2022-11-03T06:00:33.926Z,7.20
2022-11-03T06:03:03.107Z,7.20
2022-11-03T06:05:33.626Z,7.20
2022-11-03T06:08:05.388Z,7.20
2022-11-03T06:10:42.127Z,7.20
2022-11-03T06:13:16.715Z,7.20
2022-11-03T06:15:48.818Z,7.20
2022-11-03T06:18:20.277Z,7.20
2022-11-03T06:20:53.000Z,7.20
2022-11-03T06:23:22.591Z,7.20
2022-11-03T06:25:54.138Z,7.30
2022-11-03T06:28:26.496Z,7.20
2022-11-03T06:30:56.682Z,7.30
2022-11-03T06:33:28.165Z,7.30
2022-11-03T06:36:03.527Z,7.30
2022-11-03T06:38:35.236Z,7.30
2022-11-03T06:41:04.139Z,7.40
2022-11-03T06:43:41.881Z,7.40
2022-11-03T06:46:19.768Z,7.40
2022-11-03T06:48:48.136Z,7.50
2022-11-03T06:51:20.644Z,7.50
2022-11-03T06:53:51.025Z,7.60
2022-11-03T06:56:23.233Z,7.60
2022-11-03T06:58:53.578Z,7.70
2022-11-03T07:01:25.523Z,7.70
2022-11-03T07:03:59.399Z,7.80
2022-11-03T07:06:32.550Z,7.90
2022-11-03T07:09:05.068Z,7.90
2022-11-03T07:11:36.833Z,8.00
2022-11-03T07:14:13.563Z,8.10
2022-11-03T07:16:45.507Z,8.20
2022-11-03T07:19:18.983Z,8.20
2022-11-03T07:21:49.755Z,8.20
2022-11-03T07:24:23.255Z,8.30
2022-11-03T07:26:57.771Z,8.30
2022-11-03T07:29:30.279Z,8.40
2022-11-03T07:32:01.670Z,8.50
2022-11-03T07:34:35.077Z,8.50
2022-11-03T07:37:03.908Z,8.60
2022-11-03T07:39:38.613Z,8.70
2022-11-03T07:42:16.121Z,8.80
2022-11-03T07:44:44.720Z,8.90
2022-11-03T07:47:20.377Z,9.00
2022-11-03T07:49:52.611Z,9.10
2022-11-03T07:52:23.657Z,9.30
2022-11-03T07:54:55.000Z,9.40
2022-11-03T07:57:26.211Z,9.50
2022-11-03T08:00:00.696Z,9.70
2022-11-03T08:02:50.122Z,9.80
2022-11-03T08:07:47.978Z,10.10
2022-11-03T08:10:16.761Z,10.30
2022-11-03T08:12:45.522Z,10.50
2022-11-03T08:15:14.052Z,10.60
2022-11-03T08:17:43.792Z,10.80
2022-11-03T08:20:13.090Z,10.90
2022-11-03T08:22:59.113Z,11.00
2022-11-03T08:25:33.693Z,11.10
2022-11-03T08:28:03.212Z,11.20
2022-11-03T08:30:31.937Z,11.30
2022-11-03T08:33:01.957Z,11.40
2022-11-03T08:35:33.202Z,11.40
2022-11-03T08:38:02.611Z,11.50
2022-11-03T08:40:33.754Z,11.60
2022-11-03T08:43:03.217Z,11.60
2022-11-03T08:45:31.677Z,11.70
2022-11-03T08:48:01.537Z,11.90
2022-11-03T08:50:30.503Z,11.90
2022-11-03T08:52:58.886Z,12.00
2022-11-03T08:55:27.251Z,12.10
2022-11-03T08:57:55.881Z,12.10
2022-11-03T09:00:24.531Z,12.20
2022-11-03T09:02:53.071Z,12.20
2022-11-03T09:05:23.227Z,12.30
2022-11-03T09:10:42.622Z,12.50
2022-11-03T09:13:11.328Z,12.60
2022-11-03T09:15:39.903Z,12.70
2022-11-03T09:18:08.579Z,12.80
2022-11-03T09:20:38.648Z,12.90
2022-11-03T09:23:06.998Z,13.00
2022-11-03T09:25:35.379Z,13.10
2022-11-03T09:28:04.067Z,13.20
2022-11-03T09:30:32.949Z,13.30
2022-11-03T09:33:01.555Z,13.40
2022-11-03T09:35:29.853Z,13.50
2022-11-03T09:37:59.866Z,13.70
2022-11-03T09:40:28.363Z,13.80
2022-11-03T09:42:58.139Z,14.00
2022-11-03T09:45:26.478Z,14.00
2022-11-03T09:47:56.545Z,14.10
2022-11-03T09:50:25.301Z,14.00
2022-11-03T09:52:55.374Z,14.00
2022-11-03T09:55:28.148Z,14.00
2022-11-03T09:57:58.894Z,14.00
2022-11-03T10:00:28.175Z,14.00
2022-11-03T10:02:58.206Z,14.10
2022-11-03T10:05:28.408Z,14.10
2022-11-03T10:08:01.748Z,14.10
2022-11-03T10:10:32.385Z,14.30
2022-11-03T10:13:01.853Z,14.50
2022-11-03T10:15:30.725Z,14.70
2022-11-03T10:17:59.352Z,14.80
2022-11-03T10:20:30.603Z,15.00
2022-11-03T10:22:59.094Z,15.00
2022-11-03T10:25:29.518Z,15.10
2022-11-03T10:28:16.888Z,15.00
2022-11-03T10:31:12.588Z,15.10
2022-11-03T10:33:56.764Z,15.20
2022-11-03T10:36:27.507Z,15.30
2022-11-03T10:38:56.703Z,15.40
2022-11-03T10:41:26.548Z,15.40
2022-11-03T10:44:05.513Z,15.50
2022-11-03T10:46:51.525Z,15.50
2022-11-03T10:49:25.359Z,15.50
2022-11-03T10:51:56.256Z,15.50
2022-11-03T10:54:26.229Z,15.50
2022-11-03T10:56:57.173Z,15.50
2022-11-03T10:59:32.920Z,15.50
2022-11-03T11:02:02.756Z,15.50
2022-11-03T11:04:34.330Z,15.60
2022-11-03T11:07:03.435Z,15.60
2022-11-03T11:09:32.240Z,15.70
2022-11-03T11:12:15.813Z,15.80
2022-11-03T11:14:57.359Z,15.90
2022-11-03T11:17:47.492Z,15.90
2022-11-03T11:20:38.272Z,16.00
2022-11-03T11:23:52.535Z,16.00
2022-11-03T11:26:42.274Z,15.90
2022-11-03T11:29:48.288Z,15.80
2022-11-03T11:32:52.651Z,15.60
2022-11-03T11:36:06.715Z,15.50
2022-11-03T11:38:59.065Z,15.40
2022-11-03T11:42:07.041Z,15.40
2022-11-03T11:45:03.047Z,15.40
2022-11-03T11:47:44.747Z,15.40
2022-11-03T11:50:31.554Z,15.40
2022-11-03T11:53:27.503Z,15.40
2022-11-03T11:56:00.603Z,15.40
2022-11-03T11:58:38.050Z,15.50
2022-11-03T12:01:20.747Z,15.50
2022-11-03T12:03:50.685Z,15.50
2022-11-03T12:06:32.939Z,15.50
2022-11-03T12:09:07.926Z,15.40
2022-11-03T12:11:47.640Z,15.30
2022-11-03T12:14:25.255Z,15.30
2022-11-03T12:16:54.396Z,15.20
2022-11-03T12:19:44.509Z,15.20
2022-11-03T12:22:34.155Z,15.30
2022-11-03T12:25:07.094Z,15.20
2022-11-03T12:27:43.975Z,15.20
2022-11-03T12:30:18.874Z,15.20
2022-11-03T12:32:47.806Z,15.20
2022-11-03T12:35:18.126Z,15.10
2022-11-03T12:37:46.923Z,15.20
2022-11-03T12:40:18.202Z,15.30
2022-11-03T12:42:47.983Z,15.30
2022-11-03T12:45:16.474Z,15.30
2022-11-03T12:47:44.980Z,15.40
2022-11-03T12:50:13.575Z,15.40
2022-11-03T12:52:42.173Z,15.50
2022-11-03T12:55:13.260Z,15.50
2022-11-03T12:57:45.798Z,15.50
2022-11-03T13:00:15.573Z,15.60
2022-11-03T13:02:44.422Z,15.60
2022-11-03T13:05:15.447Z,15.60
2022-11-03T13:07:44.116Z,15.60
2022-11-03T13:10:12.692Z,15.60
2022-11-03T13:12:44.740Z,15.60
2022-11-03T13:15:15.863Z,15.60
2022-11-03T13:20:37.315Z,15.40
2022-11-03T13:23:07.253Z,15.40
2022-11-03T13:25:36.200Z,15.20
2022-11-03T13:28:06.780Z,15.10
2022-11-03T13:30:35.166Z,15.10
2022-11-03T13:33:03.883Z,15.00
2022-11-03T13:35:32.404Z,15.00
2022-11-03T13:38:00.811Z,15.00
2022-11-03T13:40:54.902Z,15.00
2022-11-03T13:43:19.548Z,15.00
2022-11-03T13:45:47.833Z,14.90
2022-11-03T13:51:10.689Z,14.90
2022-11-03T13:56:28.390Z,14.90
2022-11-03T14:01:48.184Z,14.90
2022-11-03T14:07:08.584Z,14.80
2022-11-03T14:12:23.102Z,14.70
2022-11-03T14:14:52.903Z,14.70
2022-11-03T14:17:21.255Z,14.60
2022-11-03T14:19:52.612Z,14.60
2022-11-03T14:22:22.194Z,14.60
2022-11-03T14:24:51.330Z,14.60
2022-11-03T14:27:20.926Z,14.60
2022-11-03T14:29:50.463Z,14.60
2022-11-03T14:32:21.887Z,14.60
2022-11-03T14:34:50.252Z,14.70
2022-11-03T14:37:20.160Z,14.60
2022-11-03T14:39:49.947Z,14.60
2022-11-03T14:42:17.484Z,14.60
2022-11-03T14:44:47.588Z,14.60
2022-11-03T14:47:19.211Z,14.60
2022-11-03T14:49:50.361Z,14.50
2022-11-03T14:52:18.993Z,14.50
2022-11-03T14:54:47.412Z,14.50
2022-11-03T14:57:15.868Z,14.50
2022-11-03T14:59:46.747Z,14.40
2022-11-03T15:02:21.053Z,14.40
2022-11-03T15:04:50.728Z,14.40
2022-11-03T15:07:19.038Z,14.40
2022-11-03T15:09:47.371Z,14.40
2022-11-03T15:12:15.982Z,14.30
2022-11-03T15:14:44.286Z,14.30
2022-11-03T15:17:12.680Z,14.30
2022-11-03T15:19:41.523Z,14.20
2022-11-03T15:22:11.724Z,14.20
2022-11-03T15:27:29.850Z,14.10
2022-11-03T15:29:58.151Z,14.10
2022-11-03T15:32:26.619Z,14.10
2022-11-03T15:34:54.909Z,14.10
2022-11-03T15:37:24.984Z,14.10
2022-11-03T15:39:55.871Z,14.10
2022-11-03T15:42:28.012Z,14.10
2022-11-03T15:44:56.397Z,14.00
2022-11-03T15:47:24.788Z,14.00
2022-11-03T15:49:54.186Z,14.00
2022-11-03T15:52:23.982Z,13.90
2022-11-03T15:54:52.413Z,13.90
2022-11-03T15:57:21.055Z,13.80
2022-11-03T15:59:51.560Z,13.80
2022-11-03T16:02:40.257Z,13.80
2022-11-03T16:05:10.823Z,13.80
2022-11-03T16:07:41.317Z,13.80
2022-11-03T16:10:10.493Z,13.70
2022-11-03T16:12:38.941Z,13.70
2022-11-03T16:15:08.940Z,13.70
2022-11-03T16:17:42.780Z,13.70
2022-11-03T16:20:14.092Z,13.60
2022-11-03T16:22:43.896Z,13.70
2022-11-03T16:25:15.658Z,13.60
2022-11-03T16:27:46.521Z,13.60
2022-11-03T16:30:15.055Z,13.60
2022-11-03T16:32:44.095Z,13.60
2022-11-03T16:35:12.454Z,13.60
2022-11-03T16:37:41.966Z,13.60
2022-11-03T16:40:19.126Z,13.60
2022-11-03T16:42:48.675Z,13.50
2022-11-03T16:45:19.827Z,13.50
2022-11-03T16:47:49.429Z,13.50
2022-11-03T16:50:20.350Z,13.50
2022-11-03T16:52:50.196Z,13.40
2022-11-03T16:55:20.868Z,13.40
2022-11-03T16:57:50.570Z,13.40
2022-11-03T17:00:20.906Z,13.40
2022-11-03T17:02:49.523Z,13.40
2022-11-03T17:05:19.898Z,13.40
2022-11-03T17:07:53.176Z,13.40
2022-11-03T17:10:24.299Z,13.40
2022-11-03T17:12:52.735Z,13.30
2022-11-03T17:15:35.149Z,13.30
2022-11-03T17:18:03.581Z,13.30
2022-11-03T17:20:31.892Z,13.30
2022-11-03T17:23:00.145Z,13.30
2022-11-03T17:25:30.392Z,13.30
2022-11-03T17:28:01.262Z,13.30
2022-11-03T17:30:32.449Z,13.30
2022-11-03T17:33:03.692Z,13.20
2022-11-03T17:35:39.584Z,13.20
2022-11-03T17:38:13.745Z,13.20
2022-11-03T17:40:45.477Z,13.20
2022-11-03T17:43:23.176Z,13.20
2022-11-03T17:45:52.379Z,13.20
2022-11-03T17:48:23.378Z,13.20
2022-11-03T17:50:54.696Z,13.20
2022-11-03T17:53:25.243Z,13.20
2022-11-03T17:56:28.508Z,13.20
2022-11-03T17:58:46.857Z,13.20
2022-11-03T18:01:22.379Z,13.30
2022-11-03T18:03:52.065Z,13.30
2022-11-03T18:06:22.079Z,13.30
2022-11-03T18:08:50.899Z,13.30
2022-11-03T18:11:46.779Z,13.30
2022-11-03T18:14:15.650Z,13.40
2022-11-03T18:16:44.215Z,13.40
2022-11-03T18:19:14.142Z,13.40
2022-11-03T18:21:42.872Z,13.40
2022-11-03T18:24:14.378Z,13.40
2022-11-03T18:26:45.169Z,13.40
2022-11-03T18:29:13.595Z,13.30
2022-11-03T18:31:46.735Z,13.30
2022-11-03T18:34:18.072Z,13.20
2022-11-03T18:36:46.711Z,13.20
2022-11-03T18:39:20.573Z,13.20
2022-11-03T18:41:50.556Z,13.20
2022-11-03T18:44:24.091Z,13.20
2022-11-03T18:46:55.473Z,13.20
2022-11-03T18:49:24.880Z,13.20
2022-11-03T18:52:02.032Z,13.20
2022-11-03T18:54:33.333Z,13.20
2022-11-03T18:57:04.142Z,13.20
2022-11-03T18:59:35.149Z,13.20
2022-11-03T19:02:03.757Z,13.20
2022-11-03T19:04:32.780Z,13.20
2022-11-03T19:07:02.921Z,13.20
2022-11-03T19:09:31.390Z,13.20
2022-11-03T19:12:01.073Z,13.20
2022-11-03T19:14:34.346Z,13.20
2022-11-03T19:17:22.487Z,13.20
2022-11-03T19:19:51.967Z,13.20
2022-11-03T19:22:22.035Z,13.20
2022-11-03T19:24:50.987Z,13.20
2022-11-03T19:27:23.960Z,13.20
2022-11-03T19:29:54.142Z,13.20
2022-11-03T19:32:29.338Z,13.30
2022-11-03T19:35:02.998Z,13.20
2022-11-03T19:37:35.885Z,13.20
2022-11-03T19:40:08.771Z,13.30
2022-11-03T19:42:37.009Z,13.20
2022-11-03T19:45:14.317Z,13.20
2022-11-03T19:50:38.315Z,13.20
2022-11-03T19:53:08.403Z,13.20
2022-11-03T19:55:41.926Z,13.30
2022-11-03T19:58:16.504Z,13.20
2022-11-03T20:00:47.368Z,13.20
2022-11-03T20:03:16.113Z,13.30
2022-11-03T20:05:49.556Z,13.30
2022-11-03T20:08:21.247Z,13.30
2022-11-03T20:10:49.835Z,13.30
2022-11-03T20:13:21.825Z,13.30
2022-11-03T20:15:57.370Z,13.30
2022-11-03T20:18:28.990Z,13.20
2022-11-03T20:20:58.195Z,13.00
2022-11-03T20:23:29.464Z,12.90
2022-11-03T20:25:58.847Z,12.80
2022-11-03T20:28:29.617Z,12.60
2022-11-03T20:31:01.159Z,12.40
2022-11-03T20:33:31.157Z,12.30
2022-11-03T20:36:00.031Z,12.20
2022-11-03T20:38:29.696Z,12.20
2022-11-03T20:41:01.190Z,12.10
2022-11-03T20:43:34.683Z,12.10
2022-11-03T20:46:12.136Z,12.10
2022-11-03T20:48:41.083Z,12.10
2022-11-03T20:51:15.309Z,12.10
2022-11-03T20:53:44.323Z,12.00
2022-11-03T20:56:19.571Z,12.10
2022-11-03T20:58:52.477Z,12.10
2022-11-03T21:01:30.539Z,12.10
2022-11-03T21:04:00.741Z,12.10
2022-11-03T21:06:31.767Z,12.10
2022-11-03T21:09:01.922Z,12.10
2022-11-03T21:11:39.739Z,12.10
2022-11-03T21:14:15.235Z,12.10
2022-11-03T21:17:02.757Z,12.10
2022-11-03T21:19:56.117Z,12.10
2022-11-03T21:22:50.839Z,12.10
2022-11-03T21:25:18.965Z,12.20
2022-11-03T21:27:49.417Z,12.20
2022-11-03T21:30:20.019Z,12.20
2022-11-03T21:32:49.774Z,12.20
2022-11-03T21:35:20.607Z,12.20
2022-11-03T21:37:49.048Z,12.20
2022-11-03T21:40:17.656Z,12.20
2022-11-03T21:43:03.639Z,12.30
2022-11-03T21:45:31.937Z,12.30
2022-11-03T21:48:19.186Z,12.30
2022-11-03T21:50:49.913Z,12.40
2022-11-03T21:53:18.116Z,12.40
2022-11-03T21:55:49.435Z,12.40
2022-11-03T21:58:17.759Z,12.40
2022-11-03T22:00:47.208Z,12.40
2022-11-03T22:03:17.072Z,12.50
2022-11-03T22:05:45.413Z,12.50
2022-11-03T22:08:13.815Z,12.50
2022-11-03T22:10:42.545Z,12.50
2022-11-03T22:13:11.323Z,12.60
2022-11-03T22:15:57.622Z,12.60
2022-11-03T22:18:28.013Z,12.60
2022-11-03T22:21:16.147Z,12.50
2022-11-03T22:24:10.061Z,12.50
2022-11-03T22:26:55.658Z,12.50
2022-11-03T22:29:41.417Z,12.50
2022-11-03T22:32:14.814Z,12.50
2022-11-03T22:35:02.421Z,12.40
2022-11-03T22:40:15.954Z,12.40
2022-11-03T22:43:01.533Z,12.40
2022-11-03T22:45:47.562Z,12.40
2022-11-03T22:48:15.823Z,12.40
2022-11-03T22:50:46.175Z,12.40
2022-11-03T22:53:31.684Z,12.30
2022-11-03T22:56:01.848Z,12.30
2022-11-03T22:58:30.838Z,12.30
2022-11-03T23:01:03.910Z,12.30
2022-11-03T23:03:33.596Z,12.30
2022-11-03T23:06:05.853Z,12.30
2022-11-03T23:08:35.413Z,12.30
2022-11-03T23:11:05.728Z,12.30
2022-11-03T23:13:33.999Z,12.30
2022-11-03T23:16:02.453Z,12.30
2022-11-03T23:18:48.041Z,12.30
2022-11-03T23:21:17.803Z,12.30
2022-11-03T23:24:03.346Z,12.40
2022-11-03T23:26:32.360Z,12.40
2022-11-03T23:29:01.045Z,12.40
2022-11-03T23:31:29.307Z,12.40
2022-11-03T23:36:34.556Z,12.40
2022-11-03T23:39:03.461Z,12.40
2022-11-03T23:41:32.110Z,12.40
2022-11-03T23:44:00.381Z,12.50
2022-11-03T23:46:58.963Z,12.40
2022-11-03T23:49:27.484Z,12.40
2022-11-03T23:51:57.104Z,12.30
2022-11-03T23:54:25.771Z,12.30
2022-11-03T23:57:11.452Z,12.30
2022-11-03T23:59:39.874Z,12.30
